sensor_id;sensor_type;location;lat;lon;timestamp;temperature;humidity
9939;DHT22;5008;50.656;7.188;2022-10-18T00:00:29;16.30;99.90
9939;DHT22;5008;50.656;7.188;2022-10-18T00:02:57;16.30;99.90
9939;DHT22;5008;50.656;7.188;2022-10-18T00:05:24;16.40;99.90
9939;DHT22;5008;50.656;7.188;2022-10-18T00:07:52;16.30;99.90
9939;DHT22;5008;50.656;7.188;2022-10-18T00:10:19;16.30;99.90
9939;DHT22;5008;50.656;7.188;2022-10-18T00:12:49;16.30;99.90
9939;DHT22;5008;50.656;7.188;2022-10-18T00:15:17;16.30;99.90
9939;DHT22;5008;50.656;7.188;2022-10-18T00:17:46;16.30;99.90
9939;DHT22;5008;50.656;7.188;2022-10-18T00:20:13;16.20;99.90
9939;DHT22;5008;50.656;7.188;2022-10-18T00:22:41;16.30;99.90
9939;DHT22;5008;50.656;7.188;2022-10-18T00:25:09;16.30;99.90
9939;DHT22;5008;50.656;7.188;2022-10-18T00:27:36;16.30;99.90
9939;DHT22;5008;50.656;7.188;2022-10-18T00:30:04;16.30;99.90
9939;DHT22;5008;50.656;7.188;2022-10-18T00:32:35;16.30;99.90
9939;DHT22;5008;50.656;7.188;2022-10-18T00:35:05;16.30;99.90
9939;DHT22;5008;50.656;7.188;2022-10-18T00:37:33;16.30;99.90
9939;DHT22;5008;50.656;7.188;2022-10-18T00:40:02;16.30;99.90
9939;DHT22;5008;50.656;7.188;2022-10-18T00:42:31;16.30;99.90
9939;DHT22;5008;50.656;7.188;2022-10-18T00:45:04;16.30;99.90
9939;DHT22;5008;50.656;7.188;2022-10-18T00:47:33;16.30;99.90
9939;DHT22;5008;50.656;7.188;2022-10-18T00:50:05;16.30;99.90
9939;DHT22;5008;50.656;7.188;2022-10-18T00:52:37;16.30;99.90
9939;DHT22;5008;50.656;7.188;2022-10-18T00:55:06;16.30;99.90
9939;DHT22;5008;50.656;7.188;2022-10-18T00:57:35;16.30;99.90
9939;DHT22;5008;50.656;7.188;2022-10-18T01:00:05;16.30;99.90
9939;DHT22;5008;50.656;7.188;2022-10-18T01:02:36;16.30;99.90
9939;DHT22;5008;50.656;7.188;2022-10-18T01:05:07;16.30;99.90
9939;DHT22;5008;50.656;7.188;2022-10-18T01:10:44;16.30;99.90
9939;DHT22;5008;50.656;7.188;2022-10-18T01:13:37;16.30;99.90
9939;DHT22;5008;50.656;7.188;2022-10-18T01:16:22;16.30;99.90
9939;DHT22;5008;50.656;7.188;2022-10-18T01:21:54;16.30;99.90
9939;DHT22;5008;50.656;7.188;2022-10-18T01:24:53;16.30;99.90
9939;DHT22;5008;50.656;7.188;2022-10-18T01:27:42;16.30;99.90
9939;DHT22;5008;50.656;7.188;2022-10-18T01:30:38;16.30;99.90
9939;DHT22;5008;50.656;7.188;2022-10-18T01:33:17;16.30;99.90
9939;DHT22;5008;50.656;7.188;2022-10-18T01:35:49;16.30;99.90
9939;DHT22;5008;50.656;7.188;2022-10-18T01:38:19;16.20;99.90
9939;DHT22;5008;50.656;7.188;2022-10-18T01:40:48;16.20;99.90
9939;DHT22;5008;50.656;7.188;2022-10-18T01:43:20;16.20;99.90
9939;DHT22;5008;50.656;7.188;2022-10-18T01:45:52;16.20;99.90
9939;DHT22;5008;50.656;7.188;2022-10-18T01:48:21;16.10;99.90
9939;DHT22;5008;50.656;7.188;2022-10-18T01:50:48;16.20;99.90
9939;DHT22;5008;50.656;7.188;2022-10-18T01:53:24;16.20;99.90
9939;DHT22;5008;50.656;7.188;2022-10-18T01:56:03;16.20;99.90
9939;DHT22;5008;50.656;7.188;2022-10-18T01:58:37;16.20;99.90
9939;DHT22;5008;50.656;7.188;2022-10-18T02:01:16;16.20;99.90
9939;DHT22;5008;50.656;7.188;2022-10-18T02:03:47;16.20;99.90
9939;DHT22;5008;50.656;7.188;2022-10-18T02:06:19;16.20;99.90
9939;DHT22;5008;50.656;7.188;2022-10-18T02:08:52;16.20;99.90
9939;DHT22;5008;50.656;7.188;2022-10-18T02:11:20;16.20;99.90
9939;DHT22;5008;50.656;7.188;2022-10-18T02:13:50;16.20;99.90
9939;DHT22;5008;50.656;7.188;2022-10-18T02:16:24;16.20;99.90
9939;DHT22;5008;50.656;7.188;2022-10-18T02:18:58;16.20;99.90
9939;DHT22;5008;50.656;7.188;2022-10-18T02:21:31;16.20;99.90
9939;DHT22;5008;50.656;7.188;2022-10-18T02:24:00;16.20;99.90
9939;DHT22;5008;50.656;7.188;2022-10-18T02:26:28;16.20;99.90
9939;DHT22;5008;50.656;7.188;2022-10-18T02:29:00;16.20;99.90
9939;DHT22;5008;50.656;7.188;2022-10-18T02:31:34;16.20;99.90
9939;DHT22;5008;50.656;7.188;2022-10-18T02:34:07;16.20;99.90
9939;DHT22;5008;50.656;7.188;2022-10-18T02:36:39;16.20;99.90
9939;DHT22;5008;50.656;7.188;2022-10-18T02:39:12;16.20;99.90
9939;DHT22;5008;50.656;7.188;2022-10-18T02:41:40;16.10;99.90
9939;DHT22;5008;50.656;7.188;2022-10-18T02:44:08;16.20;99.90
9939;DHT22;5008;50.656;7.188;2022-10-18T02:46:37;16.20;99.90
9939;DHT22;5008;50.656;7.188;2022-10-18T02:49:07;16.20;99.90
9939;DHT22;5008;50.656;7.188;2022-10-18T02:51:34;16.20;99.90
9939;DHT22;5008;50.656;7.188;2022-10-18T02:54:02;16.20;99.90
9939;DHT22;5008;50.656;7.188;2022-10-18T02:56:29;16.20;99.90
9939;DHT22;5008;50.656;7.188;2022-10-18T02:58:57;16.20;99.90
9939;DHT22;5008;50.656;7.188;2022-10-18T03:01:24;16.20;99.90
9939;DHT22;5008;50.656;7.188;2022-10-18T03:03:52;16.20;99.90
9939;DHT22;5008;50.656;7.188;2022-10-18T03:06:19;16.20;99.90
9939;DHT22;5008;50.656;7.188;2022-10-18T03:08:46;16.20;99.90
9939;DHT22;5008;50.656;7.188;2022-10-18T03:11:12;16.20;99.90
9939;DHT22;5008;50.656;7.188;2022-10-18T03:13:39;16.20;99.90
9939;DHT22;5008;50.656;7.188;2022-10-18T03:16:06;16.20;99.90
9939;DHT22;5008;50.656;7.188;2022-10-18T03:18:33;16.20;99.90
9939;DHT22;5008;50.656;7.188;2022-10-18T03:21:04;16.20;99.90
9939;DHT22;5008;50.656;7.188;2022-10-18T03:23:31;16.20;99.90
9939;DHT22;5008;50.656;7.188;2022-10-18T03:25:58;16.20;99.90
9939;DHT22;5008;50.656;7.188;2022-10-18T03:28:24;16.20;99.90
9939;DHT22;5008;50.656;7.188;2022-10-18T03:30:51;16.20;99.90
9939;DHT22;5008;50.656;7.188;2022-10-18T03:33:18;16.20;99.90
9939;DHT22;5008;50.656;7.188;2022-10-18T03:35:45;16.20;99.90
9939;DHT22;5008;50.656;7.188;2022-10-18T03:38:13;16.20;99.90
9939;DHT22;5008;50.656;7.188;2022-10-18T03:40:40;16.20;99.90
9939;DHT22;5008;50.656;7.188;2022-10-18T03:43:07;16.20;99.90
9939;DHT22;5008;50.656;7.188;2022-10-18T03:45:34;16.20;99.90
9939;DHT22;5008;50.656;7.188;2022-10-18T03:48:00;16.20;99.90
9939;DHT22;5008;50.656;7.188;2022-10-18T03:50:27;16.20;99.90
9939;DHT22;5008;50.656;7.188;2022-10-18T03:52:54;16.20;99.90
9939;DHT22;5008;50.656;7.188;2022-10-18T03:55:22;16.20;99.90
9939;DHT22;5008;50.656;7.188;2022-10-18T03:57:49;16.20;99.90
9939;DHT22;5008;50.656;7.188;2022-10-18T04:00:16;16.20;99.90
9939;DHT22;5008;50.656;7.188;2022-10-18T04:02:43;16.10;99.90
9939;DHT22;5008;50.656;7.188;2022-10-18T04:05:10;16.10;99.90
9939;DHT22;5008;50.656;7.188;2022-10-18T04:07:37;16.20;99.90
9939;DHT22;5008;50.656;7.188;2022-10-18T04:10:05;16.10;99.90
9939;DHT22;5008;50.656;7.188;2022-10-18T04:12:33;16.10;99.90
9939;DHT22;5008;50.656;7.188;2022-10-18T04:15:00;16.10;99.90
9939;DHT22;5008;50.656;7.188;2022-10-18T04:17:29;16.10;99.90
9939;DHT22;5008;50.656;7.188;2022-10-18T04:19:56;16.10;99.90
9939;DHT22;5008;50.656;7.188;2022-10-18T04:22:24;16.10;99.90
9939;DHT22;5008;50.656;7.188;2022-10-18T04:25:01;16.10;99.90
9939;DHT22;5008;50.656;7.188;2022-10-18T04:27:29;16.10;99.90
9939;DHT22;5008;50.656;7.188;2022-10-18T04:30:02;16.10;99.90
9939;DHT22;5008;50.656;7.188;2022-10-18T04:32:32;16.00;99.90
9939;DHT22;5008;50.656;7.188;2022-10-18T04:35:00;16.00;99.90
9939;DHT22;5008;50.656;7.188;2022-10-18T04:37:29;16.00;99.90
9939;DHT22;5008;50.656;7.188;2022-10-18T04:39:59;16.10;99.90
9939;DHT22;5008;50.656;7.188;2022-10-18T04:42:32;16.00;99.90
9939;DHT22;5008;50.656;7.188;2022-10-18T04:45:11;16.00;99.90
9939;DHT22;5008;50.656;7.188;2022-10-18T04:47:41;16.00;99.90
9939;DHT22;5008;50.656;7.188;2022-10-18T04:50:16;16.00;99.90
9939;DHT22;5008;50.656;7.188;2022-10-18T04:52:47;16.00;99.90
9939;DHT22;5008;50.656;7.188;2022-10-18T04:55:18;16.00;99.90
9939;DHT22;5008;50.656;7.188;2022-10-18T04:57:46;16.00;99.90
9939;DHT22;5008;50.656;7.188;2022-10-18T05:00:25;16.00;99.90
9939;DHT22;5008;50.656;7.188;2022-10-18T05:03:18;16.00;99.90
9939;DHT22;5008;50.656;7.188;2022-10-18T05:05:51;15.90;99.90
9939;DHT22;5008;50.656;7.188;2022-10-18T05:08:21;16.00;99.90
9939;DHT22;5008;50.656;7.188;2022-10-18T05:10:53;15.90;99.90
9939;DHT22;5008;50.656;7.188;2022-10-18T05:13:25;15.90;99.90
9939;DHT22;5008;50.656;7.188;2022-10-18T05:15:54;15.90;99.90
9939;DHT22;5008;50.656;7.188;2022-10-18T05:18:27;15.90;99.90
9939;DHT22;5008;50.656;7.188;2022-10-18T05:21:01;15.90;99.90
9939;DHT22;5008;50.656;7.188;2022-10-18T05:23:48;15.90;99.90
9939;DHT22;5008;50.656;7.188;2022-10-18T05:26:21;15.90;99.90
9939;DHT22;5008;50.656;7.188;2022-10-18T05:29:14;15.90;99.90
9939;DHT22;5008;50.656;7.188;2022-10-18T05:31:48;15.90;99.90
9939;DHT22;5008;50.656;7.188;2022-10-18T05:34:17;15.90;99.90
9939;DHT22;5008;50.656;7.188;2022-10-18T05:36:45;15.90;99.90
9939;DHT22;5008;50.656;7.188;2022-10-18T05:39:28;15.90;99.90
9939;DHT22;5008;50.656;7.188;2022-10-18T05:42:04;15.90;99.90
9939;DHT22;5008;50.656;7.188;2022-10-18T05:44:36;15.90;99.90
9939;DHT22;5008;50.656;7.188;2022-10-18T05:47:42;15.90;99.90
9939;DHT22;5008;50.656;7.188;2022-10-18T05:50:09;15.90;99.90
9939;DHT22;5008;50.656;7.188;2022-10-18T05:52:36;15.90;99.90
9939;DHT22;5008;50.656;7.188;2022-10-18T05:55:08;15.80;99.90
9939;DHT22;5008;50.656;7.188;2022-10-18T05:57:36;15.80;99.90
9939;DHT22;5008;50.656;7.188;2022-10-18T06:00:07;15.80;99.90
9939;DHT22;5008;50.656;7.188;2022-10-18T06:03:09;15.80;99.90
9939;DHT22;5008;50.656;7.188;2022-10-18T06:05:38;15.80;99.90
9939;DHT22;5008;50.656;7.188;2022-10-18T06:08:07;15.80;99.90
9939;DHT22;5008;50.656;7.188;2022-10-18T06:10:38;15.80;99.90
9939;DHT22;5008;50.656;7.188;2022-10-18T06:13:13;15.80;99.90
9939;DHT22;5008;50.656;7.188;2022-10-18T06:15:43;15.80;99.90
9939;DHT22;5008;50.656;7.188;2022-10-18T06:18:34;15.80;99.90
9939;DHT22;5008;50.656;7.188;2022-10-18T06:21:01;15.80;99.90
9939;DHT22;5008;50.656;7.188;2022-10-18T06:23:33;15.80;99.90
9939;DHT22;5008;50.656;7.188;2022-10-18T06:26:06;15.80;99.90
9939;DHT22;5008;50.656;7.188;2022-10-18T06:28:50;15.80;99.90
9939;DHT22;5008;50.656;7.188;2022-10-18T06:31:36;15.80;99.90
9939;DHT22;5008;50.656;7.188;2022-10-18T06:34:26;15.80;99.90
9939;DHT22;5008;50.656;7.188;2022-10-18T06:36:53;15.80;99.90
9939;DHT22;5008;50.656;7.188;2022-10-18T06:39:21;15.80;99.90
9939;DHT22;5008;50.656;7.188;2022-10-18T06:42:03;15.80;99.90
9939;DHT22;5008;50.656;7.188;2022-10-18T06:44:33;15.80;99.90
9939;DHT22;5008;50.656;7.188;2022-10-18T06:47:06;15.80;99.90
9939;DHT22;5008;50.656;7.188;2022-10-18T06:49:49;15.90;99.90
9939;DHT22;5008;50.656;7.188;2022-10-18T06:52:16;15.80;99.90
9939;DHT22;5008;50.656;7.188;2022-10-18T06:54:52;15.90;99.90
9939;DHT22;5008;50.656;7.188;2022-10-18T06:57:22;15.90;99.90
9939;DHT22;5008;50.656;7.188;2022-10-18T06:59:52;15.90;99.90
9939;DHT22;5008;50.656;7.188;2022-10-18T07:02:23;15.90;99.90
9939;DHT22;5008;50.656;7.188;2022-10-18T07:04:51;16.00;99.90
9939;DHT22;5008;50.656;7.188;2022-10-18T07:07:36;15.90;99.90
9939;DHT22;5008;50.656;7.188;2022-10-18T07:10:25;15.90;99.90
9939;DHT22;5008;50.656;7.188;2022-10-18T07:13:08;15.90;99.90
9939;DHT22;5008;50.656;7.188;2022-10-18T07:15:40;15.90;99.90
9939;DHT22;5008;50.656;7.188;2022-10-18T07:18:08;15.90;99.90
9939;DHT22;5008;50.656;7.188;2022-10-18T07:20:38;15.90;99.90
9939;DHT22;5008;50.656;7.188;2022-10-18T07:23:15;15.90;99.90
9939;DHT22;5008;50.656;7.188;2022-10-18T07:25:51;16.00;99.90
9939;DHT22;5008;50.656;7.188;2022-10-18T07:28:20;16.00;99.90
9939;DHT22;5008;50.656;7.188;2022-10-18T07:30:47;16.00;99.90
9939;DHT22;5008;50.656;7.188;2022-10-18T07:33:19;16.10;99.90
9939;DHT22;5008;50.656;7.188;2022-10-18T07:35:47;16.10;99.90
9939;DHT22;5008;50.656;7.188;2022-10-18T07:38:14;16.20;99.90
9939;DHT22;5008;50.656;7.188;2022-10-18T07:40:42;16.20;99.90
9939;DHT22;5008;50.656;7.188;2022-10-18T07:43:09;16.30;99.90
9939;DHT22;5008;50.656;7.188;2022-10-18T07:45:36;16.30;99.90
9939;DHT22;5008;50.656;7.188;2022-10-18T07:48:08;16.30;99.90
9939;DHT22;5008;50.656;7.188;2022-10-18T07:50:37;16.30;99.90
9939;DHT22;5008;50.656;7.188;2022-10-18T07:53:06;16.30;99.90
9939;DHT22;5008;50.656;7.188;2022-10-18T07:55:33;16.40;99.90
9939;DHT22;5008;50.656;7.188;2022-10-18T07:58:00;16.40;99.90
9939;DHT22;5008;50.656;7.188;2022-10-18T08:00:27;16.40;99.90
9939;DHT22;5008;50.656;7.188;2022-10-18T08:02:54;16.40;99.90
9939;DHT22;5008;50.656;7.188;2022-10-18T08:05:22;16.50;99.90
9939;DHT22;5008;50.656;7.188;2022-10-18T08:07:49;16.50;99.90
9939;DHT22;5008;50.656;7.188;2022-10-18T08:10:18;16.50;99.90
9939;DHT22;5008;50.656;7.188;2022-10-18T08:12:45;16.50;99.90
9939;DHT22;5008;50.656;7.188;2022-10-18T08:15:12;16.50;99.90
9939;DHT22;5008;50.656;7.188;2022-10-18T08:17:39;16.50;99.90
9939;DHT22;5008;50.656;7.188;2022-10-18T08:20:10;16.60;99.90
9939;DHT22;5008;50.656;7.188;2022-10-18T08:22:37;16.60;99.90
9939;DHT22;5008;50.656;7.188;2022-10-18T08:25:04;16.50;99.90
9939;DHT22;5008;50.656;7.188;2022-10-18T08:27:33;16.60;99.90
9939;DHT22;5008;50.656;7.188;2022-10-18T08:30:00;16.60;99.90
9939;DHT22;5008;50.656;7.188;2022-10-18T08:32:27;16.60;99.90
9939;DHT22;5008;50.656;7.188;2022-10-18T08:34:54;16.70;99.90
9939;DHT22;5008;50.656;7.188;2022-10-18T08:37:21;16.70;99.90
9939;DHT22;5008;50.656;7.188;2022-10-18T08:39:49;16.80;99.90
9939;DHT22;5008;50.656;7.188;2022-10-18T08:42:24;16.90;99.90
9939;DHT22;5008;50.656;7.188;2022-10-18T08:44:56;16.90;99.90
9939;DHT22;5008;50.656;7.188;2022-10-18T08:47:29;16.90;99.90
9939;DHT22;5008;50.656;7.188;2022-10-18T08:50:02;16.90;99.90
9939;DHT22;5008;50.656;7.188;2022-10-18T08:52:32;17.00;99.90
9939;DHT22;5008;50.656;7.188;2022-10-18T08:55:03;17.00;99.90
9939;DHT22;5008;50.656;7.188;2022-10-18T08:57:32;17.10;99.90
9939;DHT22;5008;50.656;7.188;2022-10-18T09:00:06;17.10;99.90
9939;DHT22;5008;50.656;7.188;2022-10-18T09:02:54;17.10;99.90
9939;DHT22;5008;50.656;7.188;2022-10-18T09:05:27;17.20;99.90
9939;DHT22;5008;50.656;7.188;2022-10-18T09:11:03;17.20;99.90
9939;DHT22;5008;50.656;7.188;2022-10-18T09:13:55;17.20;99.90
9939;DHT22;5008;50.656;7.188;2022-10-18T09:16:32;17.20;99.90
9939;DHT22;5008;50.656;7.188;2022-10-18T09:19:09;17.20;99.90
9939;DHT22;5008;50.656;7.188;2022-10-18T09:21:47;17.20;99.90
9939;DHT22;5008;50.656;7.188;2022-10-18T09:24:21;17.20;99.90
9939;DHT22;5008;50.656;7.188;2022-10-18T09:26:56;17.10;99.90
9939;DHT22;5008;50.656;7.188;2022-10-18T09:29:43;17.10;99.90
9939;DHT22;5008;50.656;7.188;2022-10-18T09:32:23;17.10;99.90
9939;DHT22;5008;50.656;7.188;2022-10-18T09:34:56;17.20;99.90
9939;DHT22;5008;50.656;7.188;2022-10-18T09:37:27;17.20;99.90
9939;DHT22;5008;50.656;7.188;2022-10-18T09:40:01;17.20;99.90
9939;DHT22;5008;50.656;7.188;2022-10-18T09:42:33;17.30;99.90
9939;DHT22;5008;50.656;7.188;2022-10-18T09:45:03;17.20;99.90
9939;DHT22;5008;50.656;7.188;2022-10-18T09:47:36;17.30;99.90
9939;DHT22;5008;50.656;7.188;2022-10-18T09:50:15;17.40;99.90
9939;DHT22;5008;50.656;7.188;2022-10-18T09:52:47;17.40;99.90
9939;DHT22;5008;50.656;7.188;2022-10-18T09:55:21;17.50;99.90
9939;DHT22;5008;50.656;7.188;2022-10-18T09:57:51;17.60;99.90
9939;DHT22;5008;50.656;7.188;2022-10-18T10:00:23;17.70;99.90
9939;DHT22;5008;50.656;7.188;2022-10-18T10:02:52;17.70;99.90
9939;DHT22;5008;50.656;7.188;2022-10-18T10:05:19;17.80;99.90
9939;DHT22;5008;50.656;7.188;2022-10-18T10:07:47;17.90;99.90
9939;DHT22;5008;50.656;7.188;2022-10-18T10:10:19;17.90;99.90
9939;DHT22;5008;50.656;7.188;2022-10-18T10:12:47;18.00;99.90
9939;DHT22;5008;50.656;7.188;2022-10-18T10:15:24;18.10;99.90
9939;DHT22;5008;50.656;7.188;2022-10-18T10:17:58;18.00;99.90
9939;DHT22;5008;50.656;7.188;2022-10-18T10:20:32;18.10;99.90
9939;DHT22;5008;50.656;7.188;2022-10-18T10:23:06;18.00;99.90
9939;DHT22;5008;50.656;7.188;2022-10-18T10:25:35;18.00;99.90
9939;DHT22;5008;50.656;7.188;2022-10-18T10:28:06;18.10;99.90
9939;DHT22;5008;50.656;7.188;2022-10-18T10:30:34;18.10;99.90
9939;DHT22;5008;50.656;7.188;2022-10-18T10:33:04;18.20;99.90
9939;DHT22;5008;50.656;7.188;2022-10-18T10:35:32;18.20;99.90
9939;DHT22;5008;50.656;7.188;2022-10-18T10:37:59;18.20;99.90
9939;DHT22;5008;50.656;7.188;2022-10-18T10:40:27;18.10;99.90
9939;DHT22;5008;50.656;7.188;2022-10-18T10:43:13;18.10;99.90
9939;DHT22;5008;50.656;7.188;2022-10-18T10:45:55;18.00;99.90
9939;DHT22;5008;50.656;7.188;2022-10-18T10:48:25;18.00;99.90
9939;DHT22;5008;50.656;7.188;2022-10-18T10:50:55;18.00;99.90
9939;DHT22;5008;50.656;7.188;2022-10-18T10:53:47;17.90;99.90
9939;DHT22;5008;50.656;7.188;2022-10-18T10:56:21;17.90;99.90
9939;DHT22;5008;50.656;7.188;2022-10-18T10:58:49;18.00;99.90
9939;DHT22;5008;50.656;7.188;2022-10-18T11:01:22;18.10;99.90
9939;DHT22;5008;50.656;7.188;2022-10-18T11:03:52;18.20;99.90
9939;DHT22;5008;50.656;7.188;2022-10-18T11:06:46;18.40;99.90
9939;DHT22;5008;50.656;7.188;2022-10-18T11:09:32;18.60;99.90
9939;DHT22;5008;50.656;7.188;2022-10-18T11:12:21;18.60;99.90
9939;DHT22;5008;50.656;7.188;2022-10-18T11:14:56;18.60;99.90
9939;DHT22;5008;50.656;7.188;2022-10-18T11:17:28;18.50;99.90
9939;DHT22;5008;50.656;7.188;2022-10-18T11:20:15;18.40;99.90
9939;DHT22;5008;50.656;7.188;2022-10-18T11:22:49;18.40;99.90
9939;DHT22;5008;50.656;7.188;2022-10-18T11:25:22;18.30;99.90
9939;DHT22;5008;50.656;7.188;2022-10-18T11:27:55;18.30;99.90
9939;DHT22;5008;50.656;7.188;2022-10-18T11:30:40;18.30;99.90
9939;DHT22;5008;50.656;7.188;2022-10-18T11:33:20;18.20;99.90
9939;DHT22;5008;50.656;7.188;2022-10-18T11:35:51;18.20;99.90
9939;DHT22;5008;50.656;7.188;2022-10-18T11:38:28;18.10;99.90
9939;DHT22;5008;50.656;7.188;2022-10-18T11:43:51;18.00;99.90
9939;DHT22;5008;50.656;7.188;2022-10-18T11:46:24;17.90;99.90
9939;DHT22;5008;50.656;7.188;2022-10-18T11:49:01;17.90;99.90
9939;DHT22;5008;50.656;7.188;2022-10-18T11:51:42;17.80;99.90
9939;DHT22;5008;50.656;7.188;2022-10-18T11:54:25;17.80;99.90
9939;DHT22;5008;50.656;7.188;2022-10-18T11:57:07;17.80;99.90
9939;DHT22;5008;50.656;7.188;2022-10-18T11:59:47;17.80;99.90
9939;DHT22;5008;50.656;7.188;2022-10-18T12:02:35;17.80;99.90
9939;DHT22;5008;50.656;7.188;2022-10-18T12:05:04;17.70;99.90
9939;DHT22;5008;50.656;7.188;2022-10-18T12:07:37;17.60;99.90
9939;DHT22;5008;50.656;7.188;2022-10-18T12:10:08;17.60;99.90
9939;DHT22;5008;50.656;7.188;2022-10-18T12:12:39;17.60;99.90
9939;DHT22;5008;50.656;7.188;2022-10-18T12:15:15;17.60;99.90
9939;DHT22;5008;50.656;7.188;2022-10-18T12:17:45;17.70;99.90
9939;DHT22;5008;50.656;7.188;2022-10-18T12:20:17;17.80;99.90
9939;DHT22;5008;50.656;7.188;2022-10-18T12:22:49;17.80;99.90
9939;DHT22;5008;50.656;7.188;2022-10-18T12:25:17;17.80;99.90
9939;DHT22;5008;50.656;7.188;2022-10-18T12:27:49;17.80;99.90
9939;DHT22;5008;50.656;7.188;2022-10-18T12:30:26;17.80;99.90
9939;DHT22;5008;50.656;7.188;2022-10-18T12:33:03;17.80;99.90
9939;DHT22;5008;50.656;7.188;2022-10-18T12:35:35;17.80;99.90
9939;DHT22;5008;50.656;7.188;2022-10-18T12:38:16;17.70;99.90
9939;DHT22;5008;50.656;7.188;2022-10-18T12:40:49;17.70;99.90
9939;DHT22;5008;50.656;7.188;2022-10-18T12:43:21;17.70;99.90
9939;DHT22;5008;50.656;7.188;2022-10-18T12:45:52;17.80;99.90
9939;DHT22;5008;50.656;7.188;2022-10-18T12:48:32;17.90;99.90
9939;DHT22;5008;50.656;7.188;2022-10-18T12:51:04;18.00;99.90
9939;DHT22;5008;50.656;7.188;2022-10-18T12:53:33;18.10;99.90
9939;DHT22;5008;50.656;7.188;2022-10-18T12:56:35;18.20;99.90
9939;DHT22;5008;50.656;7.188;2022-10-18T13:02:29;18.30;99.90
9939;DHT22;5008;50.656;7.188;2022-10-18T13:04:56;18.20;99.90
9939;DHT22;5008;50.656;7.188;2022-10-18T13:07:35;18.10;99.90
9939;DHT22;5008;50.656;7.188;2022-10-18T13:10:40;18.10;99.90
9939;DHT22;5008;50.656;7.188;2022-10-18T13:13:25;18.10;99.90
9939;DHT22;5008;50.656;7.188;2022-10-18T13:16:00;18.00;99.90
9939;DHT22;5008;50.656;7.188;2022-10-18T13:18:36;18.00;99.90
9939;DHT22;5008;50.656;7.188;2022-10-18T13:21:12;18.10;99.90
9939;DHT22;5008;50.656;7.188;2022-10-18T13:23:53;18.10;99.90
9939;DHT22;5008;50.656;7.188;2022-10-18T13:26:30;18.20;99.90
9939;DHT22;5008;50.656;7.188;2022-10-18T13:29:04;18.40;99.90
9939;DHT22;5008;50.656;7.188;2022-10-18T13:31:38;18.70;99.90
9939;DHT22;5008;50.656;7.188;2022-10-18T13:34:23;18.90;99.90
9939;DHT22;5008;50.656;7.188;2022-10-18T13:36:56;19.00;99.90
9939;DHT22;5008;50.656;7.188;2022-10-18T13:39:25;19.20;99.90
9939;DHT22;5008;50.656;7.188;2022-10-18T13:42:19;19.60;99.90
9939;DHT22;5008;50.656;7.188;2022-10-18T13:44:46;19.80;99.90
9939;DHT22;5008;50.656;7.188;2022-10-18T13:47:14;19.80;99.90
9939;DHT22;5008;50.656;7.188;2022-10-18T13:55:49;19.70;99.90
9939;DHT22;5008;50.656;7.188;2022-10-18T13:58:26;19.80;99.90
9939;DHT22;5008;50.656;7.188;2022-10-18T14:01:05;19.90;99.90
9939;DHT22;5008;50.656;7.188;2022-10-18T14:03:54;19.70;99.90
9939;DHT22;5008;50.656;7.188;2022-10-18T14:06:33;19.60;99.90
9939;DHT22;5008;50.656;7.188;2022-10-18T14:09:05;19.60;99.90
9939;DHT22;5008;50.656;7.188;2022-10-18T14:11:38;19.80;99.90
9939;DHT22;5008;50.656;7.188;2022-10-18T14:14:12;19.80;99.90
9939;DHT22;5008;50.656;7.188;2022-10-18T14:16:45;20.20;99.90
9939;DHT22;5008;50.656;7.188;2022-10-18T14:19:18;20.60;99.90
9939;DHT22;5008;50.656;7.188;2022-10-18T14:21:51;20.60;99.90
9939;DHT22;5008;50.656;7.188;2022-10-18T14:24:22;20.40;99.90
9939;DHT22;5008;50.656;7.188;2022-10-18T14:27:11;20.20;99.90
9939;DHT22;5008;50.656;7.188;2022-10-18T14:29:40;20.10;99.90
9939;DHT22;5008;50.656;7.188;2022-10-18T14:32:08;19.90;99.90
9939;DHT22;5008;50.656;7.188;2022-10-18T14:34:36;19.90;99.90
9939;DHT22;5008;50.656;7.188;2022-10-18T14:37:03;20.00;99.90
9939;DHT22;5008;50.656;7.188;2022-10-18T14:39:30;20.20;99.90
9939;DHT22;5008;50.656;7.188;2022-10-18T14:41:57;20.20;99.90
9939;DHT22;5008;50.656;7.188;2022-10-18T14:44:26;20.20;99.90
9939;DHT22;5008;50.656;7.188;2022-10-18T14:47:00;20.20;99.90
9939;DHT22;5008;50.656;7.188;2022-10-18T14:49:28;20.10;99.90
9939;DHT22;5008;50.656;7.188;2022-10-18T14:51:57;20.20;99.90
9939;DHT22;5008;50.656;7.188;2022-10-18T14:54:28;20.20;99.90
9939;DHT22;5008;50.656;7.188;2022-10-18T14:56:55;20.10;99.90
9939;DHT22;5008;50.656;7.188;2022-10-18T14:59:24;20.20;99.90
9939;DHT22;5008;50.656;7.188;2022-10-18T15:01:54;20.20;99.90
9939;DHT22;5008;50.656;7.188;2022-10-18T15:04:25;20.20;99.90
9939;DHT22;5008;50.656;7.188;2022-10-18T15:06:58;20.10;99.90
9939;DHT22;5008;50.656;7.188;2022-10-18T15:09:25;19.90;99.90
9939;DHT22;5008;50.656;7.188;2022-10-18T15:11:52;19.80;99.90
9939;DHT22;5008;50.656;7.188;2022-10-18T15:14:23;19.70;99.90
9939;DHT22;5008;50.656;7.188;2022-10-18T15:22:06;19.40;99.90
9939;DHT22;5008;50.656;7.188;2022-10-18T15:24:35;19.30;99.90
9939;DHT22;5008;50.656;7.188;2022-10-18T15:30:37;19.10;99.90
9939;DHT22;5008;50.656;7.188;2022-10-18T15:33:07;19.00;99.90
9939;DHT22;5008;50.656;7.188;2022-10-18T15:35:37;18.80;99.90
9939;DHT22;5008;50.656;7.188;2022-10-18T15:38:15;18.70;99.90
9939;DHT22;5008;50.656;7.188;2022-10-18T15:40:42;18.60;99.90
9939;DHT22;5008;50.656;7.188;2022-10-18T15:43:34;18.50;99.90
9939;DHT22;5008;50.656;7.188;2022-10-18T15:46:05;18.40;99.90
9939;DHT22;5008;50.656;7.188;2022-10-18T15:48:34;18.40;99.90
9939;DHT22;5008;50.656;7.188;2022-10-18T15:51:03;18.30;99.90
9939;DHT22;5008;50.656;7.188;2022-10-18T15:53:40;18.20;99.90
9939;DHT22;5008;50.656;7.188;2022-10-18T15:58:53;18.10;99.90
9939;DHT22;5008;50.656;7.188;2022-10-18T16:01:22;18.00;99.90
9939;DHT22;5008;50.656;7.188;2022-10-18T16:03:51;18.00;99.90
9939;DHT22;5008;50.656;7.188;2022-10-18T16:06:18;17.90;99.90
9939;DHT22;5008;50.656;7.188;2022-10-18T16:08:48;17.90;99.90
9939;DHT22;5008;50.656;7.188;2022-10-18T16:11:17;17.90;99.90
9939;DHT22;5008;50.656;7.188;2022-10-18T16:13:44;17.90;99.90
9939;DHT22;5008;50.656;7.188;2022-10-18T16:16:13;17.90;99.90
9939;DHT22;5008;50.656;7.188;2022-10-18T16:18:41;17.80;99.90
9939;DHT22;5008;50.656;7.188;2022-10-18T16:21:16;17.70;99.90
9939;DHT22;5008;50.656;7.188;2022-10-18T16:23:43;17.70;99.90
9939;DHT22;5008;50.656;7.188;2022-10-18T16:26:12;17.60;99.90
9939;DHT22;5008;50.656;7.188;2022-10-18T16:28:39;17.50;99.90
9939;DHT22;5008;50.656;7.188;2022-10-18T16:31:07;17.50;99.90
9939;DHT22;5008;50.656;7.188;2022-10-18T16:33:34;17.40;99.90
9939;DHT22;5008;50.656;7.188;2022-10-18T16:36:01;17.30;99.90
9939;DHT22;5008;50.656;7.188;2022-10-18T16:38:32;17.20;99.90
9939;DHT22;5008;50.656;7.188;2022-10-18T16:41:01;17.00;99.90
9939;DHT22;5008;50.656;7.188;2022-10-18T16:43:30;16.90;99.90
9939;DHT22;5008;50.656;7.188;2022-10-18T16:45:57;16.90;99.90
9939;DHT22;5008;50.656;7.188;2022-10-18T16:48:31;16.80;99.90
9939;DHT22;5008;50.656;7.188;2022-10-18T16:50:58;16.70;99.90
9939;DHT22;5008;50.656;7.188;2022-10-18T16:53:26;16.60;99.90
9939;DHT22;5008;50.656;7.188;2022-10-18T16:55:54;16.50;99.90
9939;DHT22;5008;50.656;7.188;2022-10-18T16:58:22;16.40;99.90
9939;DHT22;5008;50.656;7.188;2022-10-18T17:00:51;16.30;99.90
9939;DHT22;5008;50.656;7.188;2022-10-18T17:03:18;16.30;99.90
9939;DHT22;5008;50.656;7.188;2022-10-18T17:05:45;16.30;99.90
9939;DHT22;5008;50.656;7.188;2022-10-18T17:08:16;16.20;99.90